sensor_id;sensor_type;location;lat;lon;timestamp;P1;durP1;ratioP1;P2;durP2;ratioP2
69841;SDS011;57138;51.326;-0.068;2022-12-29T00:01:14;35.45;;;4.30;;
69841;SDS011;57138;51.326;-0.068;2022-12-29T00:03:39;35.25;;;5.43;;
69841;SDS011;57138;51.326;-0.068;2022-12-29T00:06:05;18.23;;;2.88;;
69841;SDS011;57138;51.326;-0.068;2022-12-29T00:08:31;29.70;;;3.20;;
69841;SDS011;57138;51.326;-0.068;2022-12-29T00:11:09;28.10;;;4.70;;
69841;SDS011;57138;51.326;-0.068;2022-12-29T00:13:53;29.65;;;4.05;;
69841;SDS011;57138;51.326;-0.068;2022-12-29T00:16:37;31.20;;;4.28;;
69841;SDS011;57138;51.326;-0.068;2022-12-29T00:19:05;32.03;;;5.88;;
69841;SDS011;57138;51.326;-0.068;2022-12-29T00:21:31;21.63;;;2.63;;
69841;SDS011;57138;51.326;-0.068;2022-12-29T00:24:19;25.48;;;4.45;;
69841;SDS011;57138;51.326;-0.068;2022-12-29T00:26:56;28.10;;;4.38;;
69841;SDS011;57138;51.326;-0.068;2022-12-29T00:29:47;33.35;;;4.72;;
69841;SDS011;57138;51.326;-0.068;2022-12-29T00:32:32;52.38;;;5.13;;
69841;SDS011;57138;51.326;-0.068;2022-12-29T00:35:38;24.13;;;3.00;;
69841;SDS011;57138;51.326;-0.068;2022-12-29T00:38:08;36.03;;;4.53;;
69841;SDS011;57138;51.326;-0.068;2022-12-29T00:40:53;35.90;;;4.70;;
69841;SDS011;57138;51.326;-0.068;2022-12-29T00:43:37;29.70;;;4.35;;
69841;SDS011;57138;51.326;-0.068;2022-12-29T00:46:21;22.98;;;3.25;;
69841;SDS011;57138;51.326;-0.068;2022-12-29T00:48:47;44.25;;;5.63;;
69841;SDS011;57138;51.326;-0.068;2022-12-29T00:51:31;43.55;;;5.65;;
69841;SDS011;57138;51.326;-0.068;2022-12-29T00:53:56;29.00;;;3.63;;
69841;SDS011;57138;51.326;-0.068;2022-12-29T00:56:21;39.10;;;5.75;;
69841;SDS011;57138;51.326;-0.068;2022-12-29T00:58:47;31.80;;;5.85;;
69841;SDS011;57138;51.326;-0.068;2022-12-29T01:01:12;23.67;;;3.67;;
69841;SDS011;57138;51.326;-0.068;2022-12-29T01:03:38;32.97;;;3.92;;
69841;SDS011;57138;51.326;-0.068;2022-12-29T01:06:04;30.65;;;5.18;;
69841;SDS011;57138;51.326;-0.068;2022-12-29T01:08:31;30.58;;;4.05;;
69841;SDS011;57138;51.326;-0.068;2022-12-29T01:11:01;28.02;;;3.30;;
69841;SDS011;57138;51.326;-0.068;2022-12-29T01:13:29;28.05;;;4.68;;
69841;SDS011;57138;51.326;-0.068;2022-12-29T01:15:55;23.52;;;3.35;;
69841;SDS011;57138;51.326;-0.068;2022-12-29T01:18:21;26.98;;;4.18;;
69841;SDS011;57138;51.326;-0.068;2022-12-29T01:20:47;31.13;;;4.00;;
69841;SDS011;57138;51.326;-0.068;2022-12-29T01:23:13;25.00;;;4.50;;
69841;SDS011;57138;51.326;-0.068;2022-12-29T01:25:38;34.13;;;3.60;;
69841;SDS011;57138;51.326;-0.068;2022-12-29T01:28:04;43.35;;;6.13;;
69841;SDS011;57138;51.326;-0.068;2022-12-29T01:30:29;32.58;;;5.10;;
69841;SDS011;57138;51.326;-0.068;2022-12-29T01:32:55;28.88;;;6.03;;
69841;SDS011;57138;51.326;-0.068;2022-12-29T01:35:21;35.78;;;5.45;;
69841;SDS011;57138;51.326;-0.068;2022-12-29T01:37:46;39.63;;;4.50;;
69841;SDS011;57138;51.326;-0.068;2022-12-29T01:40:12;36.58;;;4.10;;
69841;SDS011;57138;51.326;-0.068;2022-12-29T01:42:37;23.88;;;3.60;;
69841;SDS011;57138;51.326;-0.068;2022-12-29T01:45:10;44.28;;;6.13;;
69841;SDS011;57138;51.326;-0.068;2022-12-29T01:48:10;38.55;;;4.93;;
69841;SDS011;57138;51.326;-0.068;2022-12-29T01:50:33;36.08;;;5.50;;
69841;SDS011;57138;51.326;-0.068;2022-12-29T01:53:08;28.27;;;5.93;;
69841;SDS011;57138;51.326;-0.068;2022-12-29T01:55:40;46.70;;;4.57;;
69841;SDS011;57138;51.326;-0.068;2022-12-29T01:58:11;36.08;;;4.18;;
69841;SDS011;57138;51.326;-0.068;2022-12-29T02:00:39;22.52;;;3.30;;
69841;SDS011;57138;51.326;-0.068;2022-12-29T02:03:05;27.65;;;3.90;;
69841;SDS011;57138;51.326;-0.068;2022-12-29T02:05:33;37.58;;;5.28;;
69841;SDS011;57138;51.326;-0.068;2022-12-29T02:08:04;36.15;;;5.22;;
69841;SDS011;57138;51.326;-0.068;2022-12-29T02:10:31;26.98;;;4.05;;
69841;SDS011;57138;51.326;-0.068;2022-12-29T02:12:59;30.65;;;3.95;;
69841;SDS011;57138;51.326;-0.068;2022-12-29T02:15:36;27.73;;;4.72;;
69841;SDS011;57138;51.326;-0.068;2022-12-29T02:26:14;32.88;;;4.55;;
69841;SDS011;57138;51.326;-0.068;2022-12-29T02:34:20;38.50;;;5.13;;
69841;SDS011;57138;51.326;-0.068;2022-12-29T02:39:40;27.80;;;4.22;;
69841;SDS011;57138;51.326;-0.068;2022-12-29T02:42:51;36.28;;;5.22;;
69841;SDS011;57138;51.326;-0.068;2022-12-29T02:45:00;33.23;;;4.27;;
69841;SDS011;57138;51.326;-0.068;2022-12-29T02:47:41;42.50;;;5.07;;
69841;SDS011;57138;51.326;-0.068;2022-12-29T02:50:13;45.47;;;7.00;;
69841;SDS011;57138;51.326;-0.068;2022-12-29T02:52:46;40.40;;;6.95;;
69841;SDS011;57138;51.326;-0.068;2022-12-29T02:55:22;39.08;;;6.10;;
69841;SDS011;57138;51.326;-0.068;2022-12-29T02:57:47;42.08;;;6.20;;
69841;SDS011;57138;51.326;-0.068;2022-12-29T03:00:14;33.60;;;5.25;;
69841;SDS011;57138;51.326;-0.068;2022-12-29T03:02:48;33.22;;;4.35;;
69841;SDS011;57138;51.326;-0.068;2022-12-29T03:05:21;35.03;;;5.97;;
69841;SDS011;57138;51.326;-0.068;2022-12-29T03:21:45;44.47;;;5.70;;
69841;SDS011;57138;51.326;-0.068;2022-12-29T03:24:44;34.83;;;5.05;;
69841;SDS011;57138;51.326;-0.068;2022-12-29T03:27:14;31.98;;;6.65;;
69841;SDS011;57138;51.326;-0.068;2022-12-29T03:29:48;42.20;;;5.80;;
69841;SDS011;57138;51.326;-0.068;2022-12-29T03:32:23;44.20;;;8.20;;
69841;SDS011;57138;51.326;-0.068;2022-12-29T03:34:53;34.88;;;6.57;;
69841;SDS011;57138;51.326;-0.068;2022-12-29T03:37:23;34.38;;;5.22;;
69841;SDS011;57138;51.326;-0.068;2022-12-29T03:39:53;33.95;;;5.35;;
69841;SDS011;57138;51.326;-0.068;2022-12-29T03:42:21;47.72;;;8.15;;
69841;SDS011;57138;51.326;-0.068;2022-12-29T03:44:52;49.08;;;7.55;;
69841;SDS011;57138;51.326;-0.068;2022-12-29T03:47:20;37.60;;;5.13;;
69841;SDS011;57138;51.326;-0.068;2022-12-29T03:49:45;37.65;;;5.18;;
69841;SDS011;57138;51.326;-0.068;2022-12-29T03:52:11;37.75;;;5.68;;
69841;SDS011;57138;51.326;-0.068;2022-12-29T03:54:36;42.97;;;7.03;;
69841;SDS011;57138;51.326;-0.068;2022-12-29T03:57:02;39.50;;;4.70;;
69841;SDS011;57138;51.326;-0.068;2022-12-29T03:59:27;45.60;;;6.22;;
69841;SDS011;57138;51.326;-0.068;2022-12-29T04:01:53;45.63;;;7.70;;
69841;SDS011;57138;51.326;-0.068;2022-12-29T04:04:18;35.28;;;5.20;;
69841;SDS011;57138;51.326;-0.068;2022-12-29T04:06:43;38.50;;;6.78;;
69841;SDS011;57138;51.326;-0.068;2022-12-29T04:09:09;37.75;;;4.28;;
69841;SDS011;57138;51.326;-0.068;2022-12-29T04:11:34;36.38;;;6.30;;
69841;SDS011;57138;51.326;-0.068;2022-12-29T04:14:00;32.85;;;4.82;;
69841;SDS011;57138;51.326;-0.068;2022-12-29T04:16:25;40.45;;;5.72;;
69841;SDS011;57138;51.326;-0.068;2022-12-29T04:18:51;38.03;;;5.38;;
69841;SDS011;57138;51.326;-0.068;2022-12-29T04:21:16;29.10;;;4.35;;
69841;SDS011;57138;51.326;-0.068;2022-12-29T04:23:42;45.75;;;4.95;;
69841;SDS011;57138;51.326;-0.068;2022-12-29T04:26:07;34.88;;;5.32;;
69841;SDS011;57138;51.326;-0.068;2022-12-29T04:28:34;37.03;;;5.55;;
69841;SDS011;57138;51.326;-0.068;2022-12-29T04:30:59;34.85;;;4.35;;
69841;SDS011;57138;51.326;-0.068;2022-12-29T04:33:25;46.10;;;6.20;;
69841;SDS011;57138;51.326;-0.068;2022-12-29T04:35:50;39.65;;;4.72;;
69841;SDS011;57138;51.326;-0.068;2022-12-29T04:38:18;45.17;;;6.82;;
69841;SDS011;57138;51.326;-0.068;2022-12-29T04:40:44;49.70;;;6.13;;
69841;SDS011;57138;51.326;-0.068;2022-12-29T04:43:10;42.85;;;8.27;;
69841;SDS011;57138;51.326;-0.068;2022-12-29T04:45:36;53.55;;;6.03;;
69841;SDS011;57138;51.326;-0.068;2022-12-29T04:48:02;48.65;;;5.57;;
69841;SDS011;57138;51.326;-0.068;2022-12-29T04:50:28;38.03;;;5.90;;
69841;SDS011;57138;51.326;-0.068;2022-12-29T04:52:53;33.70;;;4.95;;
69841;SDS011;57138;51.326;-0.068;2022-12-29T04:55:19;35.40;;;5.28;;
69841;SDS011;57138;51.326;-0.068;2022-12-29T04:57:44;41.08;;;5.43;;
69841;SDS011;57138;51.326;-0.068;2022-12-29T05:00:10;31.77;;;4.05;;
69841;SDS011;57138;51.326;-0.068;2022-12-29T05:02:36;37.22;;;5.70;;
69841;SDS011;57138;51.326;-0.068;2022-12-29T05:05:03;36.60;;;5.00;;
69841;SDS011;57138;51.326;-0.068;2022-12-29T05:07:29;46.15;;;6.53;;
69841;SDS011;57138;51.326;-0.068;2022-12-29T05:09:55;46.38;;;6.18;;
69841;SDS011;57138;51.326;-0.068;2022-12-29T05:12:20;40.40;;;6.43;;
69841;SDS011;57138;51.326;-0.068;2022-12-29T05:14:45;42.83;;;5.65;;
69841;SDS011;57138;51.326;-0.068;2022-12-29T05:17:11;55.80;;;5.90;;
69841;SDS011;57138;51.326;-0.068;2022-12-29T05:19:36;37.28;;;6.63;;
69841;SDS011;57138;51.326;-0.068;2022-12-29T05:22:03;34.97;;;5.47;;
69841;SDS011;57138;51.326;-0.068;2022-12-29T05:24:29;60.38;;;7.97;;
69841;SDS011;57138;51.326;-0.068;2022-12-29T05:26:54;37.95;;;4.93;;
69841;SDS011;57138;51.326;-0.068;2022-12-29T05:29:19;52.83;;;6.45;;
69841;SDS011;57138;51.326;-0.068;2022-12-29T05:31:45;43.70;;;4.55;;
69841;SDS011;57138;51.326;-0.068;2022-12-29T05:34:10;33.25;;;5.53;;
69841;SDS011;57138;51.326;-0.068;2022-12-29T05:36:36;36.90;;;5.00;;
69841;SDS011;57138;51.326;-0.068;2022-12-29T05:39:02;29.65;;;4.65;;
69841;SDS011;57138;51.326;-0.068;2022-12-29T05:41:28;42.25;;;4.50;;
69841;SDS011;57138;51.326;-0.068;2022-12-29T05:43:53;43.78;;;4.95;;
69841;SDS011;57138;51.326;-0.068;2022-12-29T05:46:18;41.33;;;5.50;;
69841;SDS011;57138;51.326;-0.068;2022-12-29T05:48:44;41.65;;;5.60;;
69841;SDS011;57138;51.326;-0.068;2022-12-29T05:51:09;29.58;;;3.88;;
69841;SDS011;57138;51.326;-0.068;2022-12-29T05:53:35;39.60;;;4.90;;
69841;SDS011;57138;51.326;-0.068;2022-12-29T05:56:00;37.08;;;4.90;;
69841;SDS011;57138;51.326;-0.068;2022-12-29T05:58:25;33.88;;;5.03;;
69841;SDS011;57138;51.326;-0.068;2022-12-29T06:00:51;30.13;;;5.22;;
69841;SDS011;57138;51.326;-0.068;2022-12-29T06:03:16;28.55;;;3.17;;
69841;SDS011;57138;51.326;-0.068;2022-12-29T06:05:44;34.58;;;4.60;;
69841;SDS011;57138;51.326;-0.068;2022-12-29T06:08:10;26.33;;;4.05;;
69841;SDS011;57138;51.326;-0.068;2022-12-29T06:10:36;28.85;;;5.00;;
69841;SDS011;57138;51.326;-0.068;2022-12-29T06:13:01;28.15;;;4.78;;
69841;SDS011;57138;51.326;-0.068;2022-12-29T06:15:28;35.08;;;4.25;;
69841;SDS011;57138;51.326;-0.068;2022-12-29T06:17:54;24.13;;;3.17;;
69841;SDS011;57138;51.326;-0.068;2022-12-29T06:20:19;23.55;;;2.60;;
69841;SDS011;57138;51.326;-0.068;2022-12-29T06:22:45;18.55;;;2.13;;
69841;SDS011;57138;51.326;-0.068;2022-12-29T06:25:11;19.17;;;3.35;;
69841;SDS011;57138;51.326;-0.068;2022-12-29T06:27:37;8.98;;;1.35;;
69841;SDS011;57138;51.326;-0.068;2022-12-29T06:30:02;13.63;;;1.27;;
69841;SDS011;57138;51.326;-0.068;2022-12-29T06:32:28;14.90;;;3.30;;
69841;SDS011;57138;51.326;-0.068;2022-12-29T06:34:54;9.02;;;1.10;;
69841;SDS011;57138;51.326;-0.068;2022-12-29T06:37:19;11.13;;;1.63;;
69841;SDS011;57138;51.326;-0.068;2022-12-29T06:39:44;9.85;;;1.65;;
69841;SDS011;57138;51.326;-0.068;2022-12-29T06:42:10;10.10;;;1.25;;
69841;SDS011;57138;51.326;-0.068;2022-12-29T06:44:35;10.52;;;1.65;;
69841;SDS011;57138;51.326;-0.068;2022-12-29T06:47:01;11.38;;;1.60;;
69841;SDS011;57138;51.326;-0.068;2022-12-29T06:49:26;11.02;;;1.30;;
69841;SDS011;57138;51.326;-0.068;2022-12-29T06:51:51;8.52;;;1.25;;
69841;SDS011;57138;51.326;-0.068;2022-12-29T06:54:17;10.70;;;1.52;;
69841;SDS011;57138;51.326;-0.068;2022-12-29T06:56:42;9.27;;;1.23;;
69841;SDS011;57138;51.326;-0.068;2022-12-29T06:59:08;10.27;;;1.25;;
69841;SDS011;57138;51.326;-0.068;2022-12-29T07:01:34;8.40;;;1.15;;
69841;SDS011;57138;51.326;-0.068;2022-12-29T07:04:01;18.95;;;2.58;;
69841;SDS011;57138;51.326;-0.068;2022-12-29T07:06:27;11.02;;;1.33;;
69841;SDS011;57138;51.326;-0.068;2022-12-29T07:08:52;7.90;;;2.75;;
69841;SDS011;57138;51.326;-0.068;2022-12-29T07:11:20;11.98;;;2.25;;
69841;SDS011;57138;51.326;-0.068;2022-12-29T07:13:46;10.27;;;1.05;;
69841;SDS011;57138;51.326;-0.068;2022-12-29T07:16:12;9.20;;;1.15;;
69841;SDS011;57138;51.326;-0.068;2022-12-29T07:18:37;7.70;;;0.98;;
69841;SDS011;57138;51.326;-0.068;2022-12-29T07:21:03;7.47;;;1.23;;
69841;SDS011;57138;51.326;-0.068;2022-12-29T07:23:28;10.23;;;1.52;;
69841;SDS011;57138;51.326;-0.068;2022-12-29T07:26:01;10.48;;;2.13;;
69841;SDS011;57138;51.326;-0.068;2022-12-29T07:28:31;13.48;;;1.02;;
69841;SDS011;57138;51.326;-0.068;2022-12-29T07:30:57;13.85;;;1.25;;
69841;SDS011;57138;51.326;-0.068;2022-12-29T07:33:23;13.65;;;1.90;;
69841;SDS011;57138;51.326;-0.068;2022-12-29T07:35:48;6.90;;;1.60;;
69841;SDS011;57138;51.326;-0.068;2022-12-29T07:38:14;9.88;;;1.00;;
69841;SDS011;57138;51.326;-0.068;2022-12-29T07:40:39;7.05;;;1.20;;
69841;SDS011;57138;51.326;-0.068;2022-12-29T07:43:05;10.82;;;1.38;;
69841;SDS011;57138;51.326;-0.068;2022-12-29T07:45:30;8.68;;;1.23;;
69841;SDS011;57138;51.326;-0.068;2022-12-29T07:47:56;9.05;;;1.10;;
69841;SDS011;57138;51.326;-0.068;2022-12-29T07:50:21;8.05;;;1.20;;
69841;SDS011;57138;51.326;-0.068;2022-12-29T07:52:46;3.08;;;0.88;;
69841;SDS011;57138;51.326;-0.068;2022-12-29T07:55:13;9.20;;;1.27;;
69841;SDS011;57138;51.326;-0.068;2022-12-29T07:57:39;11.18;;;1.10;;
69841;SDS011;57138;51.326;-0.068;2022-12-29T08:00:04;6.60;;;1.20;;
69841;SDS011;57138;51.326;-0.068;2022-12-29T08:02:30;14.15;;;1.35;;
69841;SDS011;57138;51.326;-0.068;2022-12-29T08:04:55;11.05;;;2.15;;
69841;SDS011;57138;51.326;-0.068;2022-12-29T08:07:21;10.35;;;1.55;;
69841;SDS011;57138;51.326;-0.068;2022-12-29T08:09:46;9.60;;;1.42;;
69841;SDS011;57138;51.326;-0.068;2022-12-29T08:12:12;9.80;;;1.38;;
69841;SDS011;57138;51.326;-0.068;2022-12-29T08:14:37;8.32;;;1.33;;
69841;SDS011;57138;51.326;-0.068;2022-12-29T08:17:03;11.95;;;2.03;;
69841;SDS011;57138;51.326;-0.068;2022-12-29T08:19:28;6.80;;;1.30;;
69841;SDS011;57138;51.326;-0.068;2022-12-29T08:21:54;15.35;;;1.27;;
69841;SDS011;57138;51.326;-0.068;2022-12-29T08:24:19;8.88;;;1.95;;
69841;SDS011;57138;51.326;-0.068;2022-12-29T08:26:45;12.30;;;2.50;;
69841;SDS011;57138;51.326;-0.068;2022-12-29T08:29:10;9.65;;;1.17;;
69841;SDS011;57138;51.326;-0.068;2022-12-29T08:31:36;12.27;;;1.20;;
69841;SDS011;57138;51.326;-0.068;2022-12-29T08:34:04;12.10;;;1.55;;
69841;SDS011;57138;51.326;-0.068;2022-12-29T08:36:30;6.13;;;1.48;;
69841;SDS011;57138;51.326;-0.068;2022-12-29T08:38:56;16.83;;;1.65;;
69841;SDS011;57138;51.326;-0.068;2022-12-29T08:41:22;16.35;;;1.00;;
69841;SDS011;57138;51.326;-0.068;2022-12-29T08:43:48;7.07;;;1.08;;
69841;SDS011;57138;51.326;-0.068;2022-12-29T08:46:14;10.63;;;0.90;;
69841;SDS011;57138;51.326;-0.068;2022-12-29T08:48:40;4.80;;;0.93;;
69841;SDS011;57138;51.326;-0.068;2022-12-29T08:51:05;15.18;;;2.08;;
69841;SDS011;57138;51.326;-0.068;2022-12-29T08:53:31;13.57;;;1.65;;
69841;SDS011;57138;51.326;-0.068;2022-12-29T08:55:58;12.40;;;2.17;;
69841;SDS011;57138;51.326;-0.068;2022-12-29T08:58:25;7.03;;;1.23;;
69841;SDS011;57138;51.326;-0.068;2022-12-29T09:00:52;11.13;;;1.00;;
69841;SDS011;57138;51.326;-0.068;2022-12-29T09:03:19;10.45;;;3.05;;
69841;SDS011;57138;51.326;-0.068;2022-12-29T09:05:47;14.25;;;2.38;;
69841;SDS011;57138;51.326;-0.068;2022-12-29T09:08:17;17.85;;;1.80;;
69841;SDS011;57138;51.326;-0.068;2022-12-29T09:10:43;11.63;;;2.08;;
69841;SDS011;57138;51.326;-0.068;2022-12-29T09:13:10;10.57;;;1.10;;
69841;SDS011;57138;51.326;-0.068;2022-12-29T09:15:35;6.25;;;1.05;;
69841;SDS011;57138;51.326;-0.068;2022-12-29T09:18:01;13.02;;;1.33;;
69841;SDS011;57138;51.326;-0.068;2022-12-29T09:20:26;7.00;;;1.38;;
69841;SDS011;57138;51.326;-0.068;2022-12-29T09:22:52;10.25;;;1.10;;
69841;SDS011;57138;51.326;-0.068;2022-12-29T09:25:18;16.30;;;1.40;;
69841;SDS011;57138;51.326;-0.068;2022-12-29T09:27:44;12.73;;;1.67;;
69841;SDS011;57138;51.326;-0.068;2022-12-29T09:30:11;20.08;;;2.20;;
69841;SDS011;57138;51.326;-0.068;2022-12-29T09:32:37;16.55;;;2.17;;
69841;SDS011;57138;51.326;-0.068;2022-12-29T09:35:03;13.07;;;1.35;;
69841;SDS011;57138;51.326;-0.068;2022-12-29T09:37:29;13.48;;;1.92;;
69841;SDS011;57138;51.326;-0.068;2022-12-29T09:39:55;14.70;;;3.03;;
69841;SDS011;57138;51.326;-0.068;2022-12-29T09:42:25;10.38;;;1.58;;
69841;SDS011;57138;51.326;-0.068;2022-12-29T09:45:03;16.38;;;2.63;;
69841;SDS011;57138;51.326;-0.068;2022-12-29T09:47:30;7.03;;;1.45;;
69841;SDS011;57138;51.326;-0.068;2022-12-29T09:49:58;10.68;;;1.33;;
69841;SDS011;57138;51.326;-0.068;2022-12-29T09:52:32;15.85;;;2.22;;
69841;SDS011;57138;51.326;-0.068;2022-12-29T09:55:09;11.48;;;1.77;;
69841;SDS011;57138;51.326;-0.068;2022-12-29T10:00:11;6.20;;;1.13;;
69841;SDS011;57138;51.326;-0.068;2022-12-29T10:02:54;14.10;;;1.70;;
69841;SDS011;57138;51.326;-0.068;2022-12-29T10:05:28;10.55;;;1.55;;
69841;SDS011;57138;51.326;-0.068;2022-12-29T10:08:17;12.65;;;1.20;;
69841;SDS011;57138;51.326;-0.068;2022-12-29T10:13:28;5.50;;;1.10;;
69841;SDS011;57138;51.326;-0.068;2022-12-29T10:16:15;9.32;;;1.00;;
69841;SDS011;57138;51.326;-0.068;2022-12-29T10:24:04;5.45;;;1.10;;
69841;SDS011;57138;51.326;-0.068;2022-12-29T10:26:38;10.88;;;1.70;;
69841;SDS011;57138;51.326;-0.068;2022-12-29T10:29:08;5.32;;;1.08;;
69841;SDS011;57138;51.326;-0.068;2022-12-29T10:34:48;4.85;;;1.05;;
69841;SDS011;57138;51.326;-0.068;2022-12-29T10:40:12;9.10;;;2.08;;
69841;SDS011;57138;51.326;-0.068;2022-12-29T10:42:45;11.18;;;1.23;;
69841;SDS011;57138;51.326;-0.068;2022-12-29T10:45:15;5.97;;;1.23;;
69841;SDS011;57138;51.326;-0.068;2022-12-29T10:47:53;8.57;;;1.48;;
69841;SDS011;57138;51.326;-0.068;2022-12-29T10:50:24;5.15;;;0.68;;
69841;SDS011;57138;51.326;-0.068;2022-12-29T10:52:51;9.35;;;1.95;;
69841;SDS011;57138;51.326;-0.068;2022-12-29T10:55:20;10.98;;;1.77;;
69841;SDS011;57138;51.326;-0.068;2022-12-29T10:57:50;6.68;;;1.38;;
69841;SDS011;57138;51.326;-0.068;2022-12-29T11:00:19;6.75;;;1.42;;
69841;SDS011;57138;51.326;-0.068;2022-12-29T11:08:18;8.60;;;1.77;;
69841;SDS011;57138;51.326;-0.068;2022-12-29T11:10:57;9.00;;;1.67;;
69841;SDS011;57138;51.326;-0.068;2022-12-29T11:13:31;10.80;;;1.25;;
69841;SDS011;57138;51.326;-0.068;2022-12-29T11:15:59;6.35;;;1.20;;
69841;SDS011;57138;51.326;-0.068;2022-12-29T11:18:26;8.43;;;1.13;;
69841;SDS011;57138;51.326;-0.068;2022-12-29T11:20:58;6.60;;;1.17;;
69841;SDS011;57138;51.326;-0.068;2022-12-29T11:23:36;7.22;;;0.95;;
69841;SDS011;57138;51.326;-0.068;2022-12-29T11:28:33;8.30;;;1.20;;
69841;SDS011;57138;51.326;-0.068;2022-12-29T11:30:59;7.60;;;1.10;;
69841;SDS011;57138;51.326;-0.068;2022-12-29T11:33:30;7.03;;;0.85;;
69841;SDS011;57138;51.326;-0.068;2022-12-29T11:36:06;8.77;;;1.27;;
69841;SDS011;57138;51.326;-0.068;2022-12-29T11:38:46;7.68;;;1.27;;
69841;SDS011;57138;51.326;-0.068;2022-12-29T11:41:19;11.27;;;2.45;;
69841;SDS011;57138;51.326;-0.068;2022-12-29T11:43:47;10.07;;;1.35;;
69841;SDS011;57138;51.326;-0.068;2022-12-29T11:46:17;11.63;;;1.88;;
69841;SDS011;57138;51.326;-0.068;2022-12-29T11:48:46;8.80;;;1.35;;
69841;SDS011;57138;51.326;-0.068;2022-12-29T11:51:12;9.15;;;1.77;;
69841;SDS011;57138;51.326;-0.068;2022-12-29T11:53:47;10.85;;;1.55;;
69841;SDS011;57138;51.326;-0.068;2022-12-29T11:56:17;10.70;;;1.73;;
69841;SDS011;57138;51.326;-0.068;2022-12-29T11:58:47;21.02;;;2.58;;
69841;SDS011;57138;51.326;-0.068;2022-12-29T12:01:20;14.43;;;2.42;;
69841;SDS011;57138;51.326;-0.068;2022-12-29T12:04:06;11.77;;;2.50;;
69841;SDS011;57138;51.326;-0.068;2022-12-29T12:06:37;11.25;;;1.83;;
69841;SDS011;57138;51.326;-0.068;2022-12-29T12:09:16;13.13;;;1.92;;
69841;SDS011;57138;51.326;-0.068;2022-12-29T12:11:51;17.92;;;2.15;;
69841;SDS011;57138;51.326;-0.068;2022-12-29T12:14:21;14.52;;;1.65;;
69841;SDS011;57138;51.326;-0.068;2022-12-29T12:16:55;23.83;;;2.47;;
69841;SDS011;57138;51.326;-0.068;2022-12-29T12:19:34;14.38;;;1.33;;
69841;SDS011;57138;51.326;-0.068;2022-12-29T12:22:17;12.30;;;2.03;;
69841;SDS011;57138;51.326;-0.068;2022-12-29T12:27:24;13.27;;;1.88;;
69841;SDS011;57138;51.326;-0.068;2022-12-29T12:30:04;15.90;;;2.90;;
69841;SDS011;57138;51.326;-0.068;2022-12-29T12:32:58;14.48;;;2.80;;
69841;SDS011;57138;51.326;-0.068;2022-12-29T12:35:45;23.33;;;3.50;;
69841;SDS011;57138;51.326;-0.068;2022-12-29T12:38:29;19.00;;;2.22;;
69841;SDS011;57138;51.326;-0.068;2022-12-29T12:46:28;21.77;;;4.10;;
69841;SDS011;57138;51.326;-0.068;2022-12-29T13:00:17;17.70;;;2.65;;
69841;SDS011;57138;51.326;-0.068;2022-12-29T13:05:21;19.58;;;3.65;;
69841;SDS011;57138;51.326;-0.068;2022-12-29T13:08:15;13.50;;;2.40;;
69841;SDS011;57138;51.326;-0.068;2022-12-29T13:31:00;15.73;;;2.88;;
69841;SDS011;57138;51.326;-0.068;2022-12-29T13:33:33;14.82;;;3.40;;
69841;SDS011;57138;51.326;-0.068;2022-12-29T13:36:19;14.35;;;1.77;;
69841;SDS011;57138;51.326;-0.068;2022-12-29T13:38:55;18.48;;;2.20;;
69841;SDS011;57138;51.326;-0.068;2022-12-29T13:41:34;14.93;;;2.00;;
69841;SDS011;57138;51.326;-0.068;2022-12-29T13:44:04;19.25;;;2.85;;
69841;SDS011;57138;51.326;-0.068;2022-12-29T13:46:36;15.52;;;2.28;;
69841;SDS011;57138;51.326;-0.068;2022-12-29T13:49:06;13.85;;;2.50;;
69841;SDS011;57138;51.326;-0.068;2022-12-29T13:51:38;17.10;;;2.80;;
69841;SDS011;57138;51.326;-0.068;2022-12-29T14:05:31;20.95;;;3.47;;
69841;SDS011;57138;51.326;-0.068;2022-12-29T14:08:01;14.82;;;2.78;;
69841;SDS011;57138;51.326;-0.068;2022-12-29T14:13:09;23.17;;;3.13;;
69841;SDS011;57138;51.326;-0.068;2022-12-29T14:15:40;13.23;;;2.50;;
69841;SDS011;57138;51.326;-0.068;2022-12-29T14:18:16;12.50;;;2.60;;
69841;SDS011;57138;51.326;-0.068;2022-12-29T14:26:33;16.85;;;3.05;;
69841;SDS011;57138;51.326;-0.068;2022-12-29T14:28:57;8.32;;;2.10;;
69841;SDS011;57138;51.326;-0.068;2022-12-29T14:31:41;15.52;;;2.15;;
69841;SDS011;57138;51.326;-0.068;2022-12-29T14:47:39;15.57;;;2.92;;
69841;SDS011;57138;51.326;-0.068;2022-12-29T14:50:23;13.43;;;2.58;;
69841;SDS011;57138;51.326;-0.068;2022-12-29T14:52:54;14.30;;;2.28;;
69841;SDS011;57138;51.326;-0.068;2022-12-29T14:57:57;23.13;;;2.72;;
69841;SDS011;57138;51.326;-0.068;2022-12-29T15:00:35;18.25;;;2.83;;
69841;SDS011;57138;51.326;-0.068;2022-12-29T15:03:12;15.15;;;2.75;;
69841;SDS011;57138;51.326;-0.068;2022-12-29T15:05:47;12.32;;;1.88;;
69841;SDS011;57138;51.326;-0.068;2022-12-29T15:08:17;17.98;;;2.47;;
69841;SDS011;57138;51.326;-0.068;2022-12-29T15:13:37;10.02;;;2.03;;
69841;SDS011;57138;51.326;-0.068;2022-12-29T15:19:05;23.77;;;2.70;;
69841;SDS011;57138;51.326;-0.068;2022-12-29T15:21:46;11.45;;;1.95;;
69841;SDS011;57138;51.326;-0.068;2022-12-29T15:24:12;18.63;;;2.70;;
69841;SDS011;57138;51.326;-0.068;2022-12-29T15:26:38;15.40;;;1.67;;
69841;SDS011;57138;51.326;-0.068;2022-12-29T15:29:05;17.85;;;2.78;;
69841;SDS011;57138;51.326;-0.068;2022-12-29T15:31:50;19.05;;;2.40;;
69841;SDS011;57138;51.326;-0.068;2022-12-29T15:34:16;11.45;;;2.17;;
69841;SDS011;57138;51.326;-0.068;2022-12-29T15:36:46;20.25;;;2.10;;
69841;SDS011;57138;51.326;-0.068;2022-12-29T15:39:33;20.70;;;3.08;;
69841;SDS011;57138;51.326;-0.068;2022-12-29T15:42:02;15.68;;;2.65;;
69841;SDS011;57138;51.326;-0.068;2022-12-29T15:44:39;19.52;;;3.28;;
69841;SDS011;57138;51.326;-0.068;2022-12-29T15:47:11;17.42;;;3.00;;
69841;SDS011;57138;51.326;-0.068;2022-12-29T15:49:44;19.75;;;2.40;;
69841;SDS011;57138;51.326;-0.068;2022-12-29T15:52:18;12.40;;;2.83;;
69841;SDS011;57138;51.326;-0.068;2022-12-29T15:54:46;15.90;;;3.85;;
69841;SDS011;57138;51.326;-0.068;2022-12-29T15:57:24;13.18;;;2.25;;
69841;SDS011;57138;51.326;-0.068;2022-12-29T15:59:52;16.75;;;3.80;;
69841;SDS011;57138;51.326;-0.068;2022-12-29T16:02:19;21.15;;;4.53;;
69841;SDS011;57138;51.326;-0.068;2022-12-29T16:04:46;15.25;;;2.83;;
69841;SDS011;57138;51.326;-0.068;2022-12-29T16:07:23;21.27;;;3.05;;
69841;SDS011;57138;51.326;-0.068;2022-12-29T16:09:58;13.80;;;3.03;;
69841;SDS011;57138;51.326;-0.068;2022-12-29T16:12:32;15.38;;;2.83;;
69841;SDS011;57138;51.326;-0.068;2022-12-29T16:15:05;16.23;;;4.28;;
69841;SDS011;57138;51.326;-0.068;2022-12-29T16:20:18;16.38;;;3.47;;
69841;SDS011;57138;51.326;-0.068;2022-12-29T16:22:59;18.13;;;3.45;;
69841;SDS011;57138;51.326;-0.068;2022-12-29T16:25:27;23.15;;;2.85;;
69841;SDS011;57138;51.326;-0.068;2022-12-29T16:27:56;18.23;;;2.13;;
69841;SDS011;57138;51.326;-0.068;2022-12-29T16:30:29;13.98;;;2.03;;
69841;SDS011;57138;51.326;-0.068;2022-12-29T16:33:03;19.13;;;2.17;;
69841;SDS011;57138;51.326;-0.068;2022-12-29T16:35:45;19.02;;;3.53;;
69841;SDS011;57138;51.326;-0.068;2022-12-29T16:40:56;15.82;;;2.63;;
69841;SDS011;57138;51.326;-0.068;2022-12-29T16:48:36;17.15;;;3.05;;
69841;SDS011;57138;51.326;-0.068;2022-12-29T16:51:16;13.50;;;2.47;;
69841;SDS011;57138;51.326;-0.068;2022-12-29T16:53:48;20.08;;;3.20;;
69841;SDS011;57138;51.326;-0.068;2022-12-29T16:56:23;15.00;;;2.38;;
69841;SDS011;57138;51.326;-0.068;2022-12-29T16:59:02;21.45;;;2.90;;
69841;SDS011;57138;51.326;-0.068;2022-12-29T17:01:41;15.10;;;2.33;;
69841;SDS011;57138;51.326;-0.068;2022-12-29T17:04:10;18.45;;;2.63;;
69841;SDS011;57138;51.326;-0.068;2022-12-29T17:06:38;11.75;;;2.53;;
69841;SDS011;57138;51.326;-0.068;2022-12-29T17:09:19;18.27;;;2.53;;